Time;durP1;ratioP1;P1;durP2;ratioP2;P2;SDS_P1;SDS_P2;PMS_P1;PMS_P2;Temp;Humidity;BMP_temperature;BMP_pressure;BME280_temperature;BME280_humidity;BME280_pressure;Samples;Min_cycle;Max_cycle;Signal;HPM_P1;HPM_P2
2022/01/02 00:01:13;;;;;;;;;;;26.00;99.90;;;;;;5075509;28;19908;-71
2022/01/02 00:03:41;;;;;;;;;;;26.00;99.90;;;;;;5074694;28;19942;-71
2022/01/02 00:06:08;;;;;;;;;;;25.80;99.90;;;;;;5075126;28;19915;-71
2022/01/02 00:08:41;;;;;;;;;;;25.70;99.90;;;;;;5075474;28;19912;-71
2022/01/02 00:11:10;;;;;;;;;;;25.70;99.90;;;;;;5075466;28;19928;-71
2022/01/02 00:13:39;;;;;;;;;;;25.80;99.90;;;;;;5075209;28;19916;-71
2022/01/02 00:16:07;;;;;;;;;;;25.80;99.90;;;;;;5075087;28;19931;-71
2022/01/02 00:18:37;;;;;;;;;;;25.90;99.90;;;;;;5074509;28;19954;-71
2022/01/02 00:21:07;;;;;;;;;;;26.00;99.90;;;;;;5075215;28;19909;-69
2022/01/02 00:26:44;;;;;;;;;;;26.10;99.90;;;;;;4993598;28;19909;-70
2022/01/02 00:29:12;;;;;;;;;;;26.10;99.90;;;;;;5061561;28;19909;-72
2022/01/02 00:31:39;;;;;;;;;;;26.20;99.90;;;;;;5074966;28;19908;-71
2022/01/02 00:34:06;;;;;;;;;;;26.20;99.90;;;;;;5073290;28;19931;-72
2022/01/02 00:36:33;;;;;;;;;;;26.30;99.90;;;;;;5074531;28;19909;-71
2022/01/02 00:39:00;;;;;;;;;;;26.30;99.90;;;;;;5074855;28;20367;-71
2022/01/02 00:41:47;;;;;;;;;;;26.30;99.90;;;;;;5074376;28;19913;-72
2022/01/02 00:44:42;;;;;;;;;;;26.50;99.90;;;;;;5074501;28;20011;-71
2022/01/02 00:47:15;;;;;;;;;;;26.70;99.90;;;;;;5061476;28;19944;-71
2022/01/02 00:49:45;;;;;;;;;;;27.10;99.90;;;;;;5074578;28;19909;-70
2022/01/02 00:52:21;;;;;;;;;;;27.20;99.90;;;;;;5074742;28;19908;-70
2022/01/02 00:54:48;;;;;;;;;;;27.70;99.90;;;;;;5074616;28;19916;-71
2022/01/02 00:57:18;;;;;;;;;;;27.90;99.90;;;;;;5074413;28;19916;-70
2022/01/02 00:59:49;;;;;;;;;;;27.70;99.90;;;;;;5074422;28;20002;-70
2022/01/02 01:02:17;;;;;;;;;;;28.00;99.90;;;;;;5074363;28;19961;-70
2022/01/02 01:04:44;;;;;;;;;;;28.00;99.90;;;;;;5074179;28;19909;-70
2022/01/02 01:07:11;;;;;;;;;;;27.80;99.90;;;;;;5074365;28;19935;-71
2022/01/02 01:09:38;;;;;;;;;;;27.80;99.90;;;;;;5094031;28;19920;-71
2022/01/02 01:12:05;;;;;;;;;;;27.90;99.90;;;;;;5074119;28;19909;-71
2022/01/02 01:14:32;;;;;;;;;;;28.00;99.90;;;;;;5074090;28;19916;-71
2022/01/02 01:16:58;;;;;;;;;;;28.10;99.90;;;;;;5074518;28;19908;-71
2022/01/02 01:19:25;;;;;;;;;;;27.80;99.90;;;;;;5106438;28;19909;-71
2022/01/02 01:21:52;;;;;;;;;;;27.90;99.90;;;;;;5073981;28;19913;-71
2022/01/02 01:24:19;;;;;;;;;;;28.10;99.90;;;;;;5074081;28;19987;-71
2022/01/02 01:26:49;;;;;;;;;;;28.40;99.90;;;;;;5074046;28;20466;-71
2022/01/02 01:29:16;;;;;;;;;;;28.10;99.90;;;;;;5073990;28;19917;-71
2022/01/02 01:31:44;;;;;;;;;;;28.30;99.90;;;;;;5073989;28;19912;-70
2022/01/02 01:34:10;;;;;;;;;;;28.60;99.90;;;;;;5073545;28;19923;-71
2022/01/02 01:36:37;;;;;;;;;;;28.40;99.90;;;;;;5073773;28;19947;-71
2022/01/02 01:39:04;;;;;;;;;;;28.80;99.90;;;;;;5073888;28;19910;-71
2022/01/02 01:41:34;;;;;;;;;;;29.00;99.90;;;;;;5073765;28;19908;-71
2022/01/02 01:46:37;;;;;;;;;;;29.20;99.90;;;;;;5073683;28;19913;-71
2022/01/02 01:49:17;;;;;;;;;;;29.20;99.90;;;;;;5073548;28;19909;-71
2022/01/02 01:51:44;;;;;;;;;;;29.00;99.90;;;;;;5073374;28;19954;-71
2022/01/02 01:54:11;;;;;;;;;;;29.10;99.90;;;;;;5073231;28;19963;-71
2022/01/02 01:56:38;;;;;;;;;;;28.70;99.90;;;;;;5073547;28;19908;-69
2022/01/02 01:59:05;;;;;;;;;;;28.30;99.90;;;;;;5073395;28;19962;-70
2022/01/02 02:01:32;;;;;;;;;;;27.80;99.90;;;;;;5073335;28;19908;-71
2022/01/02 02:03:59;;;;;;;;;;;27.60;99.90;;;;;;5072747;28;19943;-71
2022/01/02 02:06:26;;;;;;;;;;;27.60;99.90;;;;;;5073134;28;19942;-71
2022/01/02 02:08:59;;;;;;;;;;;27.50;99.90;;;;;;5072997;28;19909;-69
2022/01/02 02:11:28;;;;;;;;;;;27.50;99.90;;;;;;5073008;28;19909;-69
2022/01/02 02:13:55;;;;;;;;;;;27.60;99.90;;;;;;5072608;28;19908;-70
2022/01/02 02:16:22;;;;;;;;;;;27.60;99.90;;;;;;5105136;28;19909;-69
2022/01/02 02:18:49;;;;;;;;;;;27.60;99.90;;;;;;5072880;28;20386;-69
2022/01/02 02:21:16;;;;;;;;;;;27.70;99.90;;;;;;5072650;28;19908;-69
2022/01/02 02:23:45;;;;;;;;;;;27.80;99.90;;;;;;5072881;28;19916;-68
2022/01/02 02:26:12;;;;;;;;;;;27.90;99.90;;;;;;5072905;28;19908;-70
2022/01/02 02:28:38;;;;;;;;;;;28.00;99.90;;;;;;5072775;28;20418;-69
2022/01/02 02:31:05;;;;;;;;;;;28.10;99.90;;;;;;5072165;28;20296;-70
2022/01/02 02:33:32;;;;;;;;;;;28.00;99.90;;;;;;5072838;28;19912;-69
2022/01/02 02:35:58;;;;;;;;;;;27.80;99.90;;;;;;5072402;28;20002;-70
2022/01/02 02:38:25;;;;;;;;;;;28.00;99.90;;;;;;5072705;28;19908;-70
2022/01/02 02:40:52;;;;;;;;;;;27.90;99.90;;;;;;5072525;28;19909;-70
2022/01/02 02:43:26;;;;;;;;;;;27.60;99.90;;;;;;5072670;28;19909;-71
2022/01/02 02:51:40;;;;;;;;;;;27.70;99.90;;;;;;5072671;28;19916;-69
2022/01/02 02:54:08;;;;;;;;;;;27.60;99.90;;;;;;5071832;28;19916;-69
2022/01/02 02:56:57;;;;;;;;;;;27.50;99.90;;;;;;5072137;28;19916;-70
2022/01/02 02:59:22;;;;;;;;;;;27.70;99.90;;;;;;5072051;28;19908;-68
2022/01/02 03:01:49;;;;;;;;;;;27.60;99.90;;;;;;5072303;28;19916;-69
2022/01/02 03:04:16;;;;;;;;;;;27.50;99.90;;;;;;5072280;28;19916;-69
2022/01/02 03:07:13;;;;;;;;;;;27.50;99.90;;;;;;5072343;28;19954;-70
2022/01/02 03:09:46;;;;;;;;;;;27.50;99.90;;;;;;5072118;28;19927;-70
2022/01/02 03:15:16;;;;;;;;;;;27.30;99.90;;;;;;5072255;28;19927;-70
2022/01/02 03:17:43;;;;;;;;;;;27.40;99.90;;;;;;5072147;28;20418;-70
2022/01/02 03:20:09;;;;;;;;;;;27.40;99.90;;;;;;5072044;28;20359;-70
2022/01/02 03:22:36;;;;;;;;;;;27.50;99.90;;;;;;5072252;28;19912;-69
2022/01/02 03:25:03;;;;;;;;;;;27.50;99.90;;;;;;5072239;28;20003;-69
2022/01/02 03:27:32;;;;;;;;;;;27.40;99.90;;;;;;5072252;28;20621;-70
2022/01/02 03:29:58;;;;;;;;;;;27.10;99.90;;;;;;5071894;28;19908;-70
2022/01/02 03:32:25;;;;;;;;;;;27.20;99.90;;;;;;5072104;28;19909;-70
2022/01/02 03:34:52;;;;;;;;;;;27.20;99.90;;;;;;5071204;28;19920;-70
2022/01/02 03:37:19;;;;;;;;;;;27.40;99.90;;;;;;5072270;28;19916;-69
2022/01/02 03:39:46;;;;;;;;;;;27.20;99.90;;;;;;5071770;28;19916;-69
2022/01/02 03:42:13;;;;;;;;;;;27.10;99.90;;;;;;5071765;28;20393;-69
2022/01/02 03:44:39;;;;;;;;;;;27.10;99.90;;;;;;5072079;28;19990;-70
2022/01/02 03:47:07;;;;;;;;;;;27.10;99.90;;;;;;5071962;28;19916;-70
2022/01/02 03:49:33;;;;;;;;;;;27.00;99.90;;;;;;5071300;28;20337;-69
2022/01/02 03:52:00;;;;;;;;;;;27.00;99.90;;;;;;5071856;28;19962;-69
2022/01/02 03:54:27;;;;;;;;;;;27.10;99.90;;;;;;5071844;28;20342;-69
2022/01/02 03:56:54;;;;;;;;;;;27.20;99.90;;;;;;5071596;28;19915;-70
2022/01/02 03:59:21;;;;;;;;;;;27.00;99.90;;;;;;5072027;28;19969;-69
2022/01/02 04:01:47;;;;;;;;;;;27.00;99.90;;;;;;5071796;28;19936;-69
2022/01/02 04:04:14;;;;;;;;;;;26.90;99.90;;;;;;5071849;28;20311;-69
2022/01/02 04:06:41;;;;;;;;;;;27.00;99.90;;;;;;5071702;28;19923;-70
2022/01/02 04:09:07;;;;;;;;;;;26.90;99.90;;;;;;5074409;28;20396;-70
2022/01/02 04:11:34;;;;;;;;;;;27.00;99.90;;;;;;5075612;28;19958;-70
2022/01/02 04:14:01;;;;;;;;;;;27.00;99.90;;;;;;5075259;28;20020;-69
2022/01/02 04:16:28;;;;;;;;;;;27.00;99.90;;;;;;5075397;28;19909;-70
2022/01/02 04:18:54;;;;;;;;;;;27.10;99.90;;;;;;5075147;28;20294;-69
2022/01/02 04:21:21;;;;;;;;;;;27.00;99.90;;;;;;5075432;28;19908;-69
2022/01/02 04:23:48;;;;;;;;;;;27.00;99.90;;;;;;5074962;28;19974;-69
2022/01/02 04:26:15;;;;;;;;;;;26.90;99.90;;;;;;5075332;28;19923;-69
2022/01/02 04:28:41;;;;;;;;;;;27.00;99.90;;;;;;5075165;28;19912;-68
2022/01/02 04:31:11;;;;;;;;;;;27.00;99.90;;;;;;5074908;28;19985;-69
2022/01/02 04:33:38;;;;;;;;;;;27.00;99.90;;;;;;5074769;28;19923;-69
2022/01/02 04:36:05;;;;;;;;;;;26.90;99.90;;;;;;5074917;28;20271;-69
2022/01/02 04:38:31;;;;;;;;;;;26.90;99.90;;;;;;5075151;28;19908;-68
2022/01/02 04:40:58;;;;;;;;;;;27.10;99.90;;;;;;5075018;28;19908;-69
2022/01/02 04:43:25;;;;;;;;;;;27.10;99.90;;;;;;5074925;28;19915;-69
2022/01/02 04:45:51;;;;;;;;;;;26.90;99.90;;;;;;5074662;28;19908;-69
2022/01/02 04:48:18;;;;;;;;;;;26.70;99.90;;;;;;5074639;28;20009;-68
2022/01/02 04:50:45;;;;;;;;;;;26.60;99.90;;;;;;5074709;28;19908;-68
2022/01/02 04:53:11;;;;;;;;;;;26.60;99.90;;;;;;5074663;28;19915;-69
2022/01/02 04:55:38;;;;;;;;;;;26.60;99.90;;;;;;5074739;28;20023;-69
2022/01/02 04:58:05;;;;;;;;;;;26.70;99.90;;;;;;5074399;28;19983;-69
2022/01/02 05:00:32;;;;;;;;;;;26.70;99.90;;;;;;5074583;28;19912;-69
2022/01/02 05:02:59;;;;;;;;;;;26.70;99.90;;;;;;5074209;28;19940;-69
2022/01/02 05:05:25;;;;;;;;;;;26.60;99.90;;;;;;5074451;28;19908;-68
2022/01/02 05:07:52;;;;;;;;;;;26.60;99.90;;;;;;5074039;28;19953;-68
2022/01/02 05:10:19;;;;;;;;;;;26.50;99.90;;;;;;5074163;28;19921;-69
2022/01/02 05:12:45;;;;;;;;;;;26.50;99.90;;;;;;5074226;28;19974;-69
2022/01/02 05:15:12;;;;;;;;;;;26.60;99.90;;;;;;5074254;28;19916;-69
2022/01/02 05:17:39;;;;;;;;;;;26.60;99.90;;;;;;5073979;28;20370;-69
2022/01/02 05:20:06;;;;;;;;;;;26.60;99.90;;;;;;5073941;28;19939;-69
2022/01/02 05:22:32;;;;;;;;;;;26.40;99.90;;;;;;5074119;28;19912;-68
2022/01/02 05:24:59;;;;;;;;;;;26.20;99.90;;;;;;5074232;28;19915;-70
2022/01/02 05:27:26;;;;;;;;;;;26.10;99.90;;;;;;5074085;28;19909;-71
2022/01/02 05:29:52;;;;;;;;;;;26.10;99.90;;;;;;5073935;28;20379;-69
2022/01/02 05:32:19;;;;;;;;;;;26.20;99.90;;;;;;5073767;28;20286;-70
2022/01/02 05:34:45;;;;;;;;;;;26.40;99.90;;;;;;5073923;28;19964;-69
2022/01/02 05:37:12;;;;;;;;;;;26.30;99.90;;;;;;5073986;28;19947;-69
2022/01/02 05:39:39;;;;;;;;;;;26.20;99.90;;;;;;5073970;28;19908;-69
2022/01/02 05:42:05;;;;;;;;;;;26.20;99.90;;;;;;5073689;28;19908;-70
2022/01/02 05:44:32;;;;;;;;;;;26.10;99.90;;;;;;5073749;28;19999;-69
2022/01/02 05:46:59;;;;;;;;;;;26.20;99.90;;;;;;5073445;28;20003;-70
2022/01/02 05:49:26;;;;;;;;;;;26.10;99.90;;;;;;5073684;28;19923;-69
2022/01/02 05:51:52;;;;;;;;;;;26.20;99.90;;;;;;5073433;28;19908;-69
2022/01/02 05:54:19;;;;;;;;;;;26.20;99.90;;;;;;5073738;28;20008;-69
2022/01/02 05:56:46;;;;;;;;;;;26.20;99.90;;;;;;5073715;28;20038;-69
2022/01/02 05:59:12;;;;;;;;;;;26.20;99.90;;;;;;5073348;28;20011;-69
2022/01/02 06:01:39;;;;;;;;;;;26.20;99.90;;;;;;5073149;28;19918;-69
2022/01/02 06:04:06;;;;;;;;;;;26.20;99.90;;;;;;5073002;28;19908;-70
2022/01/02 06:06:32;;;;;;;;;;;26.00;99.90;;;;;;5074524;28;19921;-69
2022/01/02 06:08:59;;;;;;;;;;;26.00;99.90;;;;;;5099976;28;19916;-69
2022/01/02 06:11:26;;;;;;;;;;;26.10;99.90;;;;;;5113831;28;19980;-70
2022/01/02 06:13:52;;;;;;;;;;;26.20;99.90;;;;;;5099470;28;19908;-69
2022/01/02 06:16:22;;;;;;;;;;;26.10;99.90;;;;;;5092475;28;20293;-69
2022/01/02 06:18:51;;;;;;;;;;;26.10;99.90;;;;;;5093536;28;20281;-69
2022/01/02 06:21:17;;;;;;;;;;;26.00;99.90;;;;;;5093295;28;19908;-69
2022/01/02 06:23:44;;;;;;;;;;;26.00;99.90;;;;;;5093146;28;19908;-69
2022/01/02 06:26:11;;;;;;;;;;;26.00;99.90;;;;;;5093183;28;20002;-69
2022/01/02 06:28:37;;;;;;;;;;;26.20;99.90;;;;;;5092941;28;19994;-69
2022/01/02 06:31:04;;;;;;;;;;;26.10;99.90;;;;;;5092583;28;19955;-69
2022/01/02 06:33:31;;;;;;;;;;;26.10;99.90;;;;;;5092979;28;19930;-69
2022/01/02 06:35:57;;;;;;;;;;;26.00;99.90;;;;;;5092727;28;19916;-69
2022/01/02 06:38:24;;;;;;;;;;;25.90;99.90;;;;;;5093117;28;19987;-69
2022/01/02 06:40:50;;;;;;;;;;;25.80;99.90;;;;;;5092899;28;19908;-69
2022/01/02 06:43:17;;;;;;;;;;;25.80;99.90;;;;;;5093237;28;19912;-69
2022/01/02 06:45:44;;;;;;;;;;;25.70;99.90;;;;;;5092859;28;19960;-69
2022/01/02 06:48:11;;;;;;;;;;;25.50;99.90;;;;;;5092744;28;19908;-69
2022/01/02 06:50:39;;;;;;;;;;;25.60;99.90;;;;;;5091457;28;19908;-69
2022/01/02 06:53:06;;;;;;;;;;;25.60;99.90;;;;;;5092807;28;20351;-69
2022/01/02 06:55:32;;;;;;;;;;;25.60;99.90;;;;;;5092642;28;19920;-70
2022/01/02 06:57:59;;;;;;;;;;;25.50;99.90;;;;;;5092598;28;20359;-70
2022/01/02 07:00:26;;;;;;;;;;;25.50;99.90;;;;;;5092636;28;19961;-70
2022/01/02 07:02:52;;;;;;;;;;;25.40;99.90;;;;;;5092829;28;20355;-70
2022/01/02 07:05:19;;;;;;;;;;;25.30;99.90;;;;;;5093083;28;19908;-69
2022/01/02 07:07:46;;;;;;;;;;;25.30;99.90;;;;;;5092778;28;20351;-70
2022/01/02 07:10:14;;;;;;;;;;;25.30;99.90;;;;;;5092705;28;20400;-70
2022/01/02 07:12:41;;;;;;;;;;;25.30;99.90;;;;;;5093031;28;19912;-70
2022/01/02 07:15:08;;;;;;;;;;;25.10;99.90;;;;;;5092792;28;19916;-70
2022/01/02 07:17:35;;;;;;;;;;;25.10;99.90;;;;;;5092841;28;19908;-71
2022/01/02 07:20:05;;;;;;;;;;;25.10;99.90;;;;;;5092875;28;19908;-70
2022/01/02 07:22:32;;;;;;;;;;;25.10;99.90;;;;;;5092865;28;19962;-70
2022/01/02 07:24:59;;;;;;;;;;;25.00;99.90;;;;;;5093021;28;20327;-69
2022/01/02 07:27:25;;;;;;;;;;;25.00;99.90;;;;;;5093419;28;19961;-69
2022/01/02 07:29:55;;;;;;;;;;;25.00;99.90;;;;;;5093493;28;19908;-69
2022/01/02 07:32:21;;;;;;;;;;;25.00;99.90;;;;;;5100360;28;19908;-69
2022/01/02 07:34:48;;;;;;;;;;;25.00;99.90;;;;;;5100580;28;19912;-68
2022/01/02 07:37:15;;;;;;;;;;;24.90;99.90;;;;;;5096661;28;20446;-70
2022/01/02 07:39:41;;;;;;;;;;;24.90;99.90;;;;;;5092690;28;19915;-70
2022/01/02 07:42:08;;;;;;;;;;;24.90;99.90;;;;;;5092417;28;19908;-70
2022/01/02 07:44:37;;;;;;;;;;;24.90;99.90;;;;;;5096818;28;20086;-70
2022/01/02 07:47:07;;;;;;;;;;;24.80;99.90;;;;;;5096506;28;19908;-70
2022/01/02 07:49:34;;;;;;;;;;;24.80;99.90;;;;;;5088596;28;20355;-70
2022/01/02 07:52:01;;;;;;;;;;;24.70;99.90;;;;;;5075480;28;20167;-70
2022/01/02 07:54:28;;;;;;;;;;;24.60;99.90;;;;;;5075983;28;20007;-70
2022/01/02 07:56:54;;;;;;;;;;;24.60;99.90;;;;;;5075257;28;19916;-70
2022/01/02 07:59:21;;;;;;;;;;;24.60;99.90;;;;;;5075874;28;19909;-70
2022/01/02 08:01:47;;;;;;;;;;;24.50;99.90;;;;;;5075566;28;19916;-71
2022/01/02 08:04:14;;;;;;;;;;;24.50;99.90;;;;;;5075733;28;19982;-70
2022/01/02 08:06:41;;;;;;;;;;;24.40;99.90;;;;;;5075645;28;20046;-70
2022/01/02 08:09:07;;;;;;;;;;;24.50;99.90;;;;;;5075471;28;19912;-70
2022/01/02 08:11:34;;;;;;;;;;;24.40;99.90;;;;;;5075193;28;20010;-70
2022/01/02 08:14:01;;;;;;;;;;;24.30;99.90;;;;;;5075341;28;20418;-70
2022/01/02 08:16:27;;;;;;;;;;;24.40;99.90;;;;;;5075239;28;20058;-70
2022/01/02 08:18:54;;;;;;;;;;;24.40;99.90;;;;;;5075285;28;19908;-70
2022/01/02 08:21:21;;;;;;;;;;;24.30;99.90;;;;;;5075480;28;19985;-71
2022/01/02 08:23:47;;;;;;;;;;;24.20;99.90;;;;;;5075162;28;19971;-71
2022/01/02 08:26:14;;;;;;;;;;;24.20;99.90;;;;;;5074747;28;19954;-70
2022/01/02 08:28:41;;;;;;;;;;;24.20;99.90;;;;;;5075097;28;19912;-70
2022/01/02 08:31:07;;;;;;;;;;;24.10;99.90;;;;;;5074932;28;19920;-70
2022/01/02 08:33:34;;;;;;;;;;;24.10;99.90;;;;;;5074942;28;20363;-70
2022/01/02 08:36:01;;;;;;;;;;;24.00;99.90;;;;;;5074772;28;19959;-71
2022/01/02 08:38:28;;;;;;;;;;;24.00;99.90;;;;;;5075144;28;20367;-70
2022/01/02 08:40:54;;;;;;;;;;;24.00;99.90;;;;;;5074463;28;19915;-70
2022/01/02 08:43:21;;;;;;;;;;;24.00;99.90;;;;;;5074957;28;19908;-69
2022/01/02 08:45:48;;;;;;;;;;;23.90;99.90;;;;;;5074821;28;20363;-69
2022/01/02 08:48:14;;;;;;;;;;;23.90;99.90;;;;;;5074734;28;19909;-69
2022/01/02 08:50:41;;;;;;;;;;;23.90;99.90;;;;;;5074759;28;20187;-70
2022/01/02 08:53:07;;;;;;;;;;;23.90;99.90;;;;;;5074472;28;19991;-70
2022/01/02 08:55:35;;;;;;;;;;;23.90;99.90;;;;;;5073776;28;19923;-70
2022/01/02 08:58:03;;;;;;;;;;;23.80;99.90;;;;;;5074211;28;19948;-69
2022/01/02 09:00:31;;;;;;;;;;;23.80;99.90;;;;;;5074271;28;19914;-68
2022/01/02 09:02:58;;;;;;;;;;;23.70;99.90;;;;;;5074460;28;19908;-70
2022/01/02 09:05:26;;;;;;;;;;;23.60;99.90;;;;;;5074488;28;19947;-69
2022/01/02 09:07:53;;;;;;;;;;;23.60;99.90;;;;;;5074318;28;19909;-70
2022/01/02 09:10:21;;;;;;;;;;;23.60;99.90;;;;;;5073764;28;20513;-70
2022/01/02 09:12:48;;;;;;;;;;;23.70;99.90;;;;;;5074342;28;19909;-70
2022/01/02 09:15:15;;;;;;;;;;;23.60;99.90;;;;;;5074032;28;19917;-70
2022/01/02 09:17:41;;;;;;;;;;;23.60;99.90;;;;;;5074409;28;19913;-70
2022/01/02 09:20:09;;;;;;;;;;;23.60;99.90;;;;;;5073713;28;19915;-71
2022/01/02 09:22:39;;;;;;;;;;;23.60;99.90;;;;;;5074212;28;20359;-70
2022/01/02 09:25:07;;;;;;;;;;;23.60;99.90;;;;;;5073398;28;19908;-71
2022/01/02 09:27:35;;;;;;;;;;;23.60;99.90;;;;;;5074083;28;20274;-70
2022/01/02 09:30:04;;;;;;;;;;;23.50;99.90;;;;;;5073845;28;19958;-70
2022/01/02 09:32:34;;;;;;;;;;;23.50;99.90;;;;;;5073923;28;19963;-71
2022/01/02 09:35:04;;;;;;;;;;;23.50;99.90;;;;;;5073773;28;20019;-70
2022/01/02 09:37:31;;;;;;;;;;;23.40;99.90;;;;;;5073894;28;19962;-70
2022/01/02 09:39:58;;;;;;;;;;;23.40;99.90;;;;;;5072643;28;19915;-71
2022/01/02 09:42:25;;;;;;;;;;;23.40;99.90;;;;;;5074050;28;20003;-71
2022/01/02 09:44:52;;;;;;;;;;;23.40;99.90;;;;;;5073859;28;19909;-70
2022/01/02 09:47:20;;;;;;;;;;;23.40;99.90;;;;;;5073555;28;19908;-70
2022/01/02 09:49:47;;;;;;;;;;;23.40;99.90;;;;;;5073374;28;19919;-70
2022/01/02 09:52:14;;;;;;;;;;;23.40;99.90;;;;;;5073736;28;19909;-70
2022/01/02 09:54:41;;;;;;;;;;;23.40;99.90;;;;;;5073465;28;19912;-71
2022/01/02 09:57:08;;;;;;;;;;;23.40;99.90;;;;;;5074004;28;20358;-70
2022/01/02 09:59:34;;;;;;;;;;;23.40;99.90;;;;;;5093224;28;19939;-70
2022/01/02 10:02:01;;;;;;;;;;;23.30;99.90;;;;;;5093143;28;19930;-71
2022/01/02 10:04:35;;;;;;;;;;;23.30;99.90;;;;;;5093580;28;19911;-71
2022/01/02 10:07:02;;;;;;;;;;;23.30;99.90;;;;;;5093122;28;19908;-71
2022/01/02 10:09:33;;;;;;;;;;;23.30;99.90;;;;;;5093243;28;19971;-70
2022/01/02 10:12:39;;;;;;;;;;;23.30;99.90;;;;;;5092819;28;19908;-70
2022/01/02 10:15:14;;;;;;;;;;;23.30;99.90;;;;;;5031028;28;19995;-70
2022/01/02 10:18:10;;;;;;;;;;;23.30;99.90;;;;;;5031013;28;19913;-71
2022/01/02 10:20:36;;;;;;;;;;;23.30;99.90;;;;;;5059830;28;20494;-70
2022/01/02 10:23:03;;;;;;;;;;;23.30;99.90;;;;;;5093448;28;20248;-70
2022/01/02 10:25:39;;;;;;;;;;;23.30;99.90;;;;;;5092786;28;19985;-70
2022/01/02 10:28:18;;;;;;;;;;;23.30;99.90;;;;;;5093037;28;19950;-70
2022/01/02 10:30:45;;;;;;;;;;;23.30;99.90;;;;;;5092997;28;20358;-70
2022/01/02 10:33:12;;;;;;;;;;;23.20;99.90;;;;;;5093135;28;19915;-71
2022/01/02 10:35:42;;;;;;;;;;;23.20;99.90;;;;;;5093221;28;19923;-69
2022/01/02 10:38:17;;;;;;;;;;;23.20;99.90;;;;;;5091870;28;19908;-69
2022/01/02 10:40:45;;;;;;;;;;;23.20;99.90;;;;;;5092524;28;19955;-70
2022/01/02 10:43:24;;;;;;;;;;;23.20;99.90;;;;;;5092988;28;19908;-71
2022/01/02 10:45:51;;;;;;;;;;;23.20;99.90;;;;;;5092670;28;19915;-70
2022/01/02 10:48:37;;;;;;;;;;;23.20;99.90;;;;;;5092917;28;19908;-69
2022/01/02 10:51:06;;;;;;;;;;;23.20;99.90;;;;;;5092441;28;20005;-69
2022/01/02 10:53:34;;;;;;;;;;;23.10;99.90;;;;;;5093057;28;20166;-71
2022/01/02 10:56:01;;;;;;;;;;;23.10;99.90;;;;;;5092109;28;19916;-69
2022/01/02 10:58:28;;;;;;;;;;;23.10;99.90;;;;;;5092834;28;20353;-70
2022/01/02 11:01:01;;;;;;;;;;;23.10;99.90;;;;;;5092736;28;20355;-70
2022/01/02 11:03:29;;;;;;;;;;;23.10;99.90;;;;;;5092696;28;20266;-70
2022/01/02 11:06:01;;;;;;;;;;;23.10;99.90;;;;;;5092669;28;19908;-70
2022/01/02 11:08:30;;;;;;;;;;;23.10;99.90;;;;;;5092943;28;19994;-70
2022/01/02 11:10:57;;;;;;;;;;;23.10;99.90;;;;;;5091731;28;19931;-70
2022/01/02 11:13:24;;;;;;;;;;;23.10;99.90;;;;;;5085883;28;19915;-70
2022/01/02 11:15:50;;;;;;;;;;;23.10;99.90;;;;;;5072027;28;19995;-70
2022/01/02 11:18:18;;;;;;;;;;;23.10;99.90;;;;;;5078272;28;20418;-70
2022/01/02 11:20:45;;;;;;;;;;;23.10;99.90;;;;;;5079271;28;20385;-71
2022/01/02 11:23:12;;;;;;;;;;;23.10;99.90;;;;;;5079226;28;19908;-71
2022/01/02 11:25:42;;;;;;;;;;;23.10;99.90;;;;;;5078670;28;20385;-69
2022/01/02 11:28:32;;;;;;;;;;;23.00;99.90;;;;;;5078952;28;19919;-71
2022/01/02 11:30:59;;;;;;;;;;;22.80;99.90;;;;;;5079894;28;19915;-70
2022/01/02 11:33:36;;;;;;;;;;;22.80;99.90;;;;;;5079904;28;19909;-71
2022/01/02 11:36:23;;;;;;;;;;;22.80;99.90;;;;;;5078732;28;19916;-71
2022/01/02 11:39:00;;;;;;;;;;;22.80;99.90;;;;;;5078718;28;19915;-71
2022/01/02 11:41:45;;;;;;;;;;;22.80;99.90;;;;;;5078469;28;19958;-71
2022/01/02 11:44:12;;;;;;;;;;;22.80;99.90;;;;;;5079000;28;19919;-71
2022/01/02 11:46:39;;;;;;;;;;;22.80;99.90;;;;;;5078876;28;19909;-71
2022/01/02 11:49:13;;;;;;;;;;;22.80;99.90;;;;;;5078790;28;19908;-71
2022/01/02 11:51:49;;;;;;;;;;;22.80;99.90;;;;;;5078875;28;19909;-71
2022/01/02 11:54:43;;;;;;;;;;;22.80;99.90;;;;;;5078733;28;19916;-71
2022/01/02 11:57:16;;;;;;;;;;;22.80;99.90;;;;;;5077099;28;20224;-71
2022/01/02 11:59:42;;;;;;;;;;;22.80;99.90;;;;;;5078643;28;19908;-71
2022/01/02 12:02:15;;;;;;;;;;;22.80;99.90;;;;;;5078488;28;19908;-71
2022/01/02 12:05:02;;;;;;;;;;;22.80;99.90;;;;;;5078920;28;19908;-70
2022/01/02 12:07:35;;;;;;;;;;;22.80;99.90;;;;;;5078762;28;19908;-71
2022/01/02 12:10:17;;;;;;;;;;;22.80;99.90;;;;;;5078328;28;20393;-72
2022/01/02 12:13:04;;;;;;;;;;;22.80;99.90;;;;;;5078694;28;20275;-71
2022/01/02 12:15:31;;;;;;;;;;;22.80;99.90;;;;;;5078350;28;20386;-70
2022/01/02 12:18:07;;;;;;;;;;;22.80;99.90;;;;;;5078537;28;19912;-71
2022/01/02 12:20:57;;;;;;;;;;;22.80;99.90;;;;;;5078627;28;19908;-70
2022/01/02 12:23:36;;;;;;;;;;;22.80;99.90;;;;;;5078721;28;19908;-70
2022/01/02 12:26:05;;;;;;;;;;;22.80;99.90;;;;;;5078401;28;19908;-71
2022/01/02 12:28:41;;;;;;;;;;;22.80;99.90;;;;;;5076766;28;19908;-71
2022/01/02 12:31:09;;;;;;;;;;;22.80;99.90;;;;;;5075236;28;19909;-71
2022/01/02 12:33:36;;;;;;;;;;;22.80;99.90;;;;;;5075312;28;20244;-71
2022/01/02 12:36:12;;;;;;;;;;;22.80;99.90;;;;;;5075115;28;19916;-71
2022/01/02 12:38:46;;;;;;;;;;;22.70;99.90;;;;;;5075264;28;20274;-70
2022/01/02 12:41:14;;;;;;;;;;;22.70;99.90;;;;;;5075336;28;19915;-71
2022/01/02 12:43:49;;;;;;;;;;;22.70;99.90;;;;;;5075210;28;19919;-72
2022/01/02 12:46:31;;;;;;;;;;;22.70;99.90;;;;;;5075126;28;19959;-72
2022/01/02 12:48:59;;;;;;;;;;;22.70;99.90;;;;;;5075321;27;19932;-72
2022/01/02 12:51:29;;;;;;;;;;;22.70;99.90;;;;;;5074883;28;19908;-72
2022/01/02 12:54:00;;;;;;;;;;;22.80;99.90;;;;;;5074604;28;20397;-72
2022/01/02 12:56:34;;;;;;;;;;;22.80;99.90;;;;;;5074858;28;19920;-72
2022/01/02 12:59:18;;;;;;;;;;;22.80;99.90;;;;;;5074859;28;19908;-72
2022/01/02 13:01:49;;;;;;;;;;;22.90;99.90;;;;;;5107243;28;19955;-72
2022/01/02 13:04:17;;;;;;;;;;;22.80;99.90;;;;;;5074730;28;20276;-72
2022/01/02 13:06:47;;;;;;;;;;;22.80;99.90;;;;;;5074700;28;19915;-72
2022/01/02 13:09:23;;;;;;;;;;;22.90;99.90;;;;;;5074596;28;19932;-70
2022/01/02 13:11:50;;;;;;;;;;;22.80;99.90;;;;;;5074442;28;19912;-70
2022/01/02 13:14:32;;;;;;;;;;;22.80;99.90;;;;;;5074364;28;20007;-71
2022/01/02 13:17:00;;;;;;;;;;;22.80;99.90;;;;;;5074531;28;19936;-71
2022/01/02 13:19:28;;;;;;;;;;;22.80;99.90;;;;;;5074620;28;20443;-71
2022/01/02 13:21:55;;;;;;;;;;;22.80;99.90;;;;;;5074255;28;20054;-71
2022/01/02 13:24:29;;;;;;;;;;;22.80;99.90;;;;;;5074439;28;19908;-71
2022/01/02 13:26:56;;;;;;;;;;;22.80;99.90;;;;;;5074413;28;19993;-71
2022/01/02 13:29:27;;;;;;;;;;;22.80;99.90;;;;;;5074217;28;19920;-70
2022/01/02 13:31:55;;;;;;;;;;;22.90;99.90;;;;;;5074124;28;19915;-71
2022/01/02 13:34:28;;;;;;;;;;;22.90;99.90;;;;;;5074072;28;20378;-71
2022/01/02 13:36:59;;;;;;;;;;;22.90;99.90;;;;;;5074231;28;20441;-71
2022/01/02 13:39:45;;;;;;;;;;;22.90;99.90;;;;;;5074011;28;19909;-71
2022/01/02 13:42:13;;;;;;;;;;;22.90;99.90;;;;;;5073462;28;19935;-71
2022/01/02 13:44:42;;;;;;;;;;;23.00;99.90;;;;;;5074024;28;20464;-71
2022/01/02 13:47:09;;;;;;;;;;;22.90;99.90;;;;;;5074000;28;20002;-72
2022/01/02 13:49:40;;;;;;;;;;;22.90;99.90;;;;;;5073924;28;19942;-72
2022/01/02 13:52:07;;;;;;;;;;;22.90;99.90;;;;;;5073703;28;19923;-71
2022/01/02 13:54:33;;;;;;;;;;;22.90;99.90;;;;;;5073679;28;19908;-71
2022/01/02 13:57:04;;;;;;;;;;;22.90;99.90;;;;;;5073804;28;19987;-71
2022/01/02 13:59:30;;;;;;;;;;;22.80;99.90;;;;;;5073530;28;19909;-72
2022/01/02 14:01:57;;;;;;;;;;;22.80;99.90;;;;;;5073467;28;20006;-72
2022/01/02 14:04:23;;;;;;;;;;;22.80;99.90;;;;;;5073481;28;20342;-72
2022/01/02 14:06:50;;;;;;;;;;;22.80;99.90;;;;;;5073463;28;19908;-72
2022/01/02 14:09:17;;;;;;;;;;;22.90;99.90;;;;;;5073479;28;19927;-72
2022/01/02 14:11:46;;;;;;;;;;;22.90;99.90;;;;;;5073577;28;19971;-71
2022/01/02 14:14:37;;;;;;;;;;;22.90;99.90;;;;;;5073424;28;19908;-72
2022/01/02 14:19:34;;;;;;;;;;;22.80;99.90;;;;;;5073297;28;20275;-72
2022/01/02 14:22:02;;;;;;;;;;;22.80;99.90;;;;;;5073117;28;20489;-72
2022/01/02 14:24:29;;;;;;;;;;;22.80;99.90;;;;;;5073376;28;19908;-72
2022/01/02 14:26:56;;;;;;;;;;;22.80;99.90;;;;;;5073220;28;20379;-72
2022/01/02 14:29:24;;;;;;;;;;;22.80;99.90;;;;;;5072921;28;20359;-71
2022/01/02 14:31:51;;;;;;;;;;;22.80;99.90;;;;;;5072976;28;19908;-71
2022/01/02 14:34:18;;;;;;;;;;;22.80;99.90;;;;;;5073385;28;19908;-72
2022/01/02 14:36:45;;;;;;;;;;;22.70;99.90;;;;;;5072965;28;19917;-72
2022/01/02 14:39:11;;;;;;;;;;;22.70;99.90;;;;;;5072946;28;19909;-72
2022/01/02 14:41:39;;;;;;;;;;;22.70;99.90;;;;;;5073005;28;19913;-72
2022/01/02 14:44:08;;;;;;;;;;;22.70;99.90;;;;;;5072656;28;20681;-71